PHNY

Details ICAO PHNY (LNY)
Name LANAI
Region USA (Hawaii)
Timezone Pacific/Honolulu (UTC-10.0)
Plans Departing 40
Arriving 112
Stats Elevation 1,308 ft / 399 m (AMSL)
Location 20.785642° -156.951465°
Runways 1
Magnetic Variation 9.473° E
Sunrise 2018-05-27 15:48:26 UTC / 2018-05-27 05:48:26 Local
Sunset 2018-05-28 05:04:28 UTC / 2018-05-27 19:04:28 Local
Advertisement - Login to hide

Runways

ID Width Length Bearing (true) Bearing (mag) Surface Threshold Offset Overrun Length
03 150 ft / 46 m 5,013 ft / 1,528 m 43.85° 34.38° Asphalt 0 ft / 0 m 0 ft / 0 m
21 150 ft / 46 m 5,013 ft / 1,528 m 223.85° 214.38° Asphalt 0 ft / 0 m 0 ft / 0 m

Approach Navaids

Runway Type Ident Frequency Range Bearing (true) Bearing (mag) Slope Elevation
03 Localiser ILNY 111.10 MHz 18 nm / 33 km 44.06° 34.59° - 1,308 ft / 399 m (AMSL)
03 Glidescope ILNY 111.10 MHz 10 nm / 19 km 43.85° 34.38° 3.00° 1,304 ft / 397 m (AMSL)

Map

Weather


0- 5 10 15 20 25 30 35+ Temperature / ° C

Clouds and Precipitation
Forecast for 2018-05-27 12:00 UTC. Updated an hour ago

Ground ~20,000 ft ~40,000 ft Winds

METAR

PHNY 271222Z AUTO 11004KT 10SM SCT007 19/18 A3005 RMK AO2

TAF

PHNY 271123Z 2712/2812 06007KT P6SM FEW015 SCT025 FM272000 04015G24KT P6SM SCT015 SCT035 FM280700 04007KT P6SM FEW015 SCT025

Frequencies

Recorded 118.37 MHz ASOS
Unicom 122.90 MHz CTAF
Warning: Do not use this data for real-world aviation or navigation. No guarantee of current accuracy is given.